Vedra, Spain
Current Conditions -  °F | °C
As of 1:30 AM on Tuesday 25 Nov 2014 (Local Time) from LEST Reporting Station
Broken Clouds Broken Clouds  
Wind Chill: 50°   Ceiling: 1500
Heat Index: 50°   Visibility: 6mi
Dew Point: 48°   Wind: 5mph
Humidity: 94%   Direction: 350°N
Pressure: 30.12"   Gusts: NA
Location:  42.78°N, 8.48°W
Report Text: LEST 250030Z 35004KT 320V020 9999 SCT006 BKN015 10/09 Q1020 NOSIG
Loading
Personal Weather Stations






























Interactive Weather Map New forecast layout! Learn more

10-Day Weather Forecast

Advertisements
Track Severe Weather on mobile